sensor_id;sensor_type;location;lat;lon;timestamp;P1;durP1;ratioP1;P2;durP2;ratioP2
52166;SDS011;38149;52.666;6.428;2023-04-05T00:01:30;0.20;;;0.20;;
52166;SDS011;38149;52.666;6.428;2023-04-05T00:03:57;0.20;;;0.20;;
52166;SDS011;38149;52.666;6.428;2023-04-05T00:06:24;0.22;;;0.22;;
52166;SDS011;38149;52.666;6.428;2023-04-05T00:08:52;0.20;;;0.20;;
52166;SDS011;38149;52.666;6.428;2023-04-05T00:11:22;0.20;;;0.20;;
52166;SDS011;38149;52.666;6.428;2023-04-05T00:13:49;0.30;;;0.30;;
52166;SDS011;38149;52.666;6.428;2023-04-05T00:16:16;0.20;;;0.20;;
52166;SDS011;38149;52.666;6.428;2023-04-05T00:18:43;0.30;;;0.30;;
52166;SDS011;38149;52.666;6.428;2023-04-05T00:21:13;0.30;;;0.30;;
52166;SDS011;38149;52.666;6.428;2023-04-05T00:23:40;0.20;;;0.20;;
52166;SDS011;38149;52.666;6.428;2023-04-05T00:26:09;0.20;;;0.20;;
52166;SDS011;38149;52.666;6.428;2023-04-05T00:28:36;0.20;;;0.20;;
52166;SDS011;38149;52.666;6.428;2023-04-05T00:31:03;0.20;;;0.20;;
52166;SDS011;38149;52.666;6.428;2023-04-05T00:33:29;0.20;;;0.20;;
52166;SDS011;38149;52.666;6.428;2023-04-05T00:35:55;0.20;;;0.20;;
52166;SDS011;38149;52.666;6.428;2023-04-05T00:38:21;0.20;;;0.20;;
52166;SDS011;38149;52.666;6.428;2023-04-05T00:40:47;0.20;;;0.20;;
52166;SDS011;38149;52.666;6.428;2023-04-05T00:43:14;0.20;;;0.20;;
52166;SDS011;38149;52.666;6.428;2023-04-05T00:45:40;0.30;;;0.30;;
52166;SDS011;38149;52.666;6.428;2023-04-05T00:48:06;0.20;;;0.20;;
52166;SDS011;38149;52.666;6.428;2023-04-05T00:50:33;0.22;;;0.22;;
52166;SDS011;38149;52.666;6.428;2023-04-05T00:52:59;0.20;;;0.20;;
52166;SDS011;38149;52.666;6.428;2023-04-05T00:55:25;0.20;;;0.20;;
52166;SDS011;38149;52.666;6.428;2023-04-05T00:57:52;0.30;;;0.30;;
52166;SDS011;38149;52.666;6.428;2023-04-05T01:00:20;0.30;;;0.30;;
52166;SDS011;38149;52.666;6.428;2023-04-05T01:02:57;0.20;;;0.20;;
52166;SDS011;38149;52.666;6.428;2023-04-05T01:08:05;0.30;;;0.30;;
52166;SDS011;38149;52.666;6.428;2023-04-05T01:10:54;0.20;;;0.20;;
52166;SDS011;38149;52.666;6.428;2023-04-05T01:13:27;0.22;;;0.22;;
52166;SDS011;38149;52.666;6.428;2023-04-05T01:15:54;0.30;;;0.30;;
52166;SDS011;38149;52.666;6.428;2023-04-05T01:18:20;0.20;;;0.20;;
52166;SDS011;38149;52.666;6.428;2023-04-05T01:20:49;0.30;;;0.30;;
52166;SDS011;38149;52.666;6.428;2023-04-05T01:34:25;0.22;;;0.22;;
52166;SDS011;38149;52.666;6.428;2023-04-05T01:37:01;0.20;;;0.20;;
52166;SDS011;38149;52.666;6.428;2023-04-05T01:39:30;0.25;;;0.25;;
52166;SDS011;38149;52.666;6.428;2023-04-05T01:41:57;0.30;;;0.30;;
52166;SDS011;38149;52.666;6.428;2023-04-05T01:44:25;0.30;;;0.30;;
52166;SDS011;38149;52.666;6.428;2023-04-05T01:46:51;0.30;;;0.30;;
52166;SDS011;38149;52.666;6.428;2023-04-05T01:49:18;0.25;;;0.25;;
52166;SDS011;38149;52.666;6.428;2023-04-05T01:51:50;0.30;;;0.30;;
52166;SDS011;38149;52.666;6.428;2023-04-05T01:54:16;0.20;;;0.20;;
52166;SDS011;38149;52.666;6.428;2023-04-05T01:56:42;0.20;;;0.20;;
52166;SDS011;38149;52.666;6.428;2023-04-05T01:59:08;0.30;;;0.30;;
52166;SDS011;38149;52.666;6.428;2023-04-05T02:01:34;0.30;;;0.30;;
52166;SDS011;38149;52.666;6.428;2023-04-05T02:04:01;0.30;;;0.30;;
52166;SDS011;38149;52.666;6.428;2023-04-05T02:06:27;0.30;;;0.30;;
52166;SDS011;38149;52.666;6.428;2023-04-05T02:08:53;0.30;;;0.30;;
52166;SDS011;38149;52.666;6.428;2023-04-05T02:11:19;0.20;;;0.20;;
52166;SDS011;38149;52.666;6.428;2023-04-05T02:13:45;0.20;;;0.20;;
52166;SDS011;38149;52.666;6.428;2023-04-05T02:16:11;0.20;;;0.20;;
52166;SDS011;38149;52.666;6.428;2023-04-05T02:18:37;0.30;;;0.30;;
52166;SDS011;38149;52.666;6.428;2023-04-05T02:21:04;0.30;;;0.30;;
52166;SDS011;38149;52.666;6.428;2023-04-05T02:23:32;0.30;;;0.30;;
52166;SDS011;38149;52.666;6.428;2023-04-05T02:25:58;0.20;;;0.20;;
52166;SDS011;38149;52.666;6.428;2023-04-05T02:28:25;0.20;;;0.20;;
52166;SDS011;38149;52.666;6.428;2023-04-05T02:30:51;0.30;;;0.30;;
52166;SDS011;38149;52.666;6.428;2023-04-05T02:33:17;0.20;;;0.20;;
52166;SDS011;38149;52.666;6.428;2023-04-05T02:35:43;0.20;;;0.20;;
52166;SDS011;38149;52.666;6.428;2023-04-05T02:38:11;0.28;;;0.28;;
52166;SDS011;38149;52.666;6.428;2023-04-05T02:40:38;0.22;;;0.22;;
52166;SDS011;38149;52.666;6.428;2023-04-05T02:43:05;0.30;;;0.30;;
52166;SDS011;38149;52.666;6.428;2023-04-05T02:45:32;0.30;;;0.30;;
52166;SDS011;38149;52.666;6.428;2023-04-05T02:47:58;0.30;;;0.30;;
52166;SDS011;38149;52.666;6.428;2023-04-05T02:50:24;0.30;;;0.30;;
52166;SDS011;38149;52.666;6.428;2023-04-05T02:52:50;0.30;;;0.30;;
52166;SDS011;38149;52.666;6.428;2023-04-05T02:55:16;0.30;;;0.30;;
52166;SDS011;38149;52.666;6.428;2023-04-05T02:57:43;0.30;;;0.30;;
52166;SDS011;38149;52.666;6.428;2023-04-05T03:00:09;0.20;;;0.20;;
52166;SDS011;38149;52.666;6.428;2023-04-05T03:02:36;0.25;;;0.25;;
52166;SDS011;38149;52.666;6.428;2023-04-05T03:05:04;0.30;;;0.30;;
52166;SDS011;38149;52.666;6.428;2023-04-05T03:07:31;0.30;;;0.30;;
52166;SDS011;38149;52.666;6.428;2023-04-05T03:09:57;0.30;;;0.30;;
52166;SDS011;38149;52.666;6.428;2023-04-05T03:12:24;0.30;;;0.30;;
52166;SDS011;38149;52.666;6.428;2023-04-05T03:14:50;0.30;;;0.30;;
52166;SDS011;38149;52.666;6.428;2023-04-05T03:17:16;0.30;;;0.30;;
52166;SDS011;38149;52.666;6.428;2023-04-05T03:19:42;0.30;;;0.30;;
52166;SDS011;38149;52.666;6.428;2023-04-05T03:22:09;0.30;;;0.30;;
52166;SDS011;38149;52.666;6.428;2023-04-05T03:24:35;0.30;;;0.30;;
52166;SDS011;38149;52.666;6.428;2023-04-05T03:27:01;0.30;;;0.30;;
52166;SDS011;38149;52.666;6.428;2023-04-05T03:29:30;0.30;;;0.30;;
52166;SDS011;38149;52.666;6.428;2023-04-05T03:31:56;0.30;;;0.30;;
52166;SDS011;38149;52.666;6.428;2023-04-05T03:34:25;0.30;;;0.30;;
52166;SDS011;38149;52.666;6.428;2023-04-05T03:36:53;0.20;;;0.20;;
52166;SDS011;38149;52.666;6.428;2023-04-05T03:39:19;0.30;;;0.30;;
52166;SDS011;38149;52.666;6.428;2023-04-05T03:41:45;0.30;;;0.30;;
52166;SDS011;38149;52.666;6.428;2023-04-05T03:44:11;0.30;;;0.30;;
52166;SDS011;38149;52.666;6.428;2023-04-05T03:46:38;0.30;;;0.30;;
52166;SDS011;38149;52.666;6.428;2023-04-05T03:49:04;0.30;;;0.30;;
52166;SDS011;38149;52.666;6.428;2023-04-05T03:51:31;0.30;;;0.30;;
52166;SDS011;38149;52.666;6.428;2023-04-05T03:53:57;0.30;;;0.30;;
52166;SDS011;38149;52.666;6.428;2023-04-05T03:56:23;0.30;;;0.30;;
52166;SDS011;38149;52.666;6.428;2023-04-05T03:58:51;0.20;;;0.20;;
52166;SDS011;38149;52.666;6.428;2023-04-05T04:01:17;0.20;;;0.20;;
52166;SDS011;38149;52.666;6.428;2023-04-05T04:03:46;0.30;;;0.30;;
52166;SDS011;38149;52.666;6.428;2023-04-05T04:06:12;0.30;;;0.30;;
52166;SDS011;38149;52.666;6.428;2023-04-05T04:08:38;0.20;;;0.20;;
52166;SDS011;38149;52.666;6.428;2023-04-05T04:11:04;0.22;;;0.22;;
52166;SDS011;38149;52.666;6.428;2023-04-05T04:13:31;0.30;;;0.30;;
52166;SDS011;38149;52.666;6.428;2023-04-05T04:15:57;0.30;;;0.30;;
52166;SDS011;38149;52.666;6.428;2023-04-05T04:18:23;0.30;;;0.30;;
52166;SDS011;38149;52.666;6.428;2023-04-05T04:20:49;0.30;;;0.30;;
52166;SDS011;38149;52.666;6.428;2023-04-05T04:23:16;0.30;;;0.30;;
52166;SDS011;38149;52.666;6.428;2023-04-05T04:25:42;0.22;;;0.22;;
52166;SDS011;38149;52.666;6.428;2023-04-05T04:28:10;0.30;;;0.30;;
52166;SDS011;38149;52.666;6.428;2023-04-05T04:30:36;0.30;;;0.30;;
52166;SDS011;38149;52.666;6.428;2023-04-05T04:33:03;0.30;;;0.30;;
52166;SDS011;38149;52.666;6.428;2023-04-05T04:35:32;0.30;;;0.30;;
52166;SDS011;38149;52.666;6.428;2023-04-05T04:37:59;0.30;;;0.30;;
52166;SDS011;38149;52.666;6.428;2023-04-05T04:40:29;0.28;;;0.28;;
52166;SDS011;38149;52.666;6.428;2023-04-05T04:43:02;0.30;;;0.30;;
52166;SDS011;38149;52.666;6.428;2023-04-05T04:45:29;0.30;;;0.30;;
52166;SDS011;38149;52.666;6.428;2023-04-05T04:47:58;0.30;;;0.30;;
52166;SDS011;38149;52.666;6.428;2023-04-05T04:50:25;0.30;;;0.30;;
52166;SDS011;38149;52.666;6.428;2023-04-05T04:52:51;0.30;;;0.30;;
52166;SDS011;38149;52.666;6.428;2023-04-05T04:55:18;0.30;;;0.30;;
52166;SDS011;38149;52.666;6.428;2023-04-05T04:57:50;0.30;;;0.30;;
52166;SDS011;38149;52.666;6.428;2023-04-05T05:00:17;0.30;;;0.30;;
52166;SDS011;38149;52.666;6.428;2023-04-05T05:02:44;0.30;;;0.30;;
52166;SDS011;38149;52.666;6.428;2023-04-05T05:05:11;0.30;;;0.30;;
52166;SDS011;38149;52.666;6.428;2023-04-05T05:07:38;0.30;;;0.30;;
52166;SDS011;38149;52.666;6.428;2023-04-05T05:10:10;0.30;;;0.30;;
52166;SDS011;38149;52.666;6.428;2023-04-05T05:12:40;0.30;;;0.30;;
52166;SDS011;38149;52.666;6.428;2023-04-05T05:15:07;0.30;;;0.30;;
52166;SDS011;38149;52.666;6.428;2023-04-05T05:17:34;0.30;;;0.30;;
52166;SDS011;38149;52.666;6.428;2023-04-05T05:20:00;0.30;;;0.30;;
52166;SDS011;38149;52.666;6.428;2023-04-05T05:22:29;0.30;;;0.30;;
52166;SDS011;38149;52.666;6.428;2023-04-05T05:24:55;0.30;;;0.30;;
52166;SDS011;38149;52.666;6.428;2023-04-05T05:27:21;0.30;;;0.30;;
52166;SDS011;38149;52.666;6.428;2023-04-05T05:29:47;0.30;;;0.30;;
52166;SDS011;38149;52.666;6.428;2023-04-05T05:32:13;0.30;;;0.30;;
52166;SDS011;38149;52.666;6.428;2023-04-05T05:34:41;0.30;;;0.30;;
52166;SDS011;38149;52.666;6.428;2023-04-05T05:37:08;0.30;;;0.30;;
52166;SDS011;38149;52.666;6.428;2023-04-05T05:39:36;0.30;;;0.30;;
52166;SDS011;38149;52.666;6.428;2023-04-05T05:42:02;0.30;;;0.30;;
52166;SDS011;38149;52.666;6.428;2023-04-05T05:44:28;0.30;;;0.30;;
52166;SDS011;38149;52.666;6.428;2023-04-05T05:46:54;0.30;;;0.30;;
52166;SDS011;38149;52.666;6.428;2023-04-05T05:49:21;0.30;;;0.30;;
52166;SDS011;38149;52.666;6.428;2023-04-05T05:51:47;0.30;;;0.30;;
52166;SDS011;38149;52.666;6.428;2023-04-05T05:54:14;0.30;;;0.30;;
52166;SDS011;38149;52.666;6.428;2023-04-05T05:56:40;0.32;;;0.32;;
52166;SDS011;38149;52.666;6.428;2023-04-05T05:59:06;0.30;;;0.30;;
52166;SDS011;38149;52.666;6.428;2023-04-05T06:01:32;0.30;;;0.30;;
52166;SDS011;38149;52.666;6.428;2023-04-05T06:04:02;0.30;;;0.30;;
52166;SDS011;38149;52.666;6.428;2023-04-05T06:06:28;0.30;;;0.30;;
52166;SDS011;38149;52.666;6.428;2023-04-05T06:08:54;0.30;;;0.30;;
52166;SDS011;38149;52.666;6.428;2023-04-05T06:11:21;0.30;;;0.30;;
52166;SDS011;38149;52.666;6.428;2023-04-05T06:13:49;0.30;;;0.30;;
52166;SDS011;38149;52.666;6.428;2023-04-05T06:16:24;0.30;;;0.30;;
52166;SDS011;38149;52.666;6.428;2023-04-05T06:18:51;0.30;;;0.30;;
52166;SDS011;38149;52.666;6.428;2023-04-05T06:21:19;0.30;;;0.30;;
52166;SDS011;38149;52.666;6.428;2023-04-05T06:23:48;0.30;;;0.30;;
52166;SDS011;38149;52.666;6.428;2023-04-05T06:26:15;0.30;;;0.30;;
52166;SDS011;38149;52.666;6.428;2023-04-05T06:28:47;0.30;;;0.30;;
52166;SDS011;38149;52.666;6.428;2023-04-05T06:31:18;0.30;;;0.30;;
52166;SDS011;38149;52.666;6.428;2023-04-05T06:33:45;0.30;;;0.30;;
52166;SDS011;38149;52.666;6.428;2023-04-05T06:36:11;0.30;;;0.30;;
52166;SDS011;38149;52.666;6.428;2023-04-05T06:38:37;0.30;;;0.30;;
52166;SDS011;38149;52.666;6.428;2023-04-05T06:41:03;0.30;;;0.30;;
52166;SDS011;38149;52.666;6.428;2023-04-05T06:43:30;0.30;;;0.30;;
52166;SDS011;38149;52.666;6.428;2023-04-05T06:45:56;0.30;;;0.30;;
52166;SDS011;38149;52.666;6.428;2023-04-05T06:48:23;0.30;;;0.30;;
52166;SDS011;38149;52.666;6.428;2023-04-05T06:51:02;0.30;;;0.30;;
52166;SDS011;38149;52.666;6.428;2023-04-05T06:53:28;0.30;;;0.30;;
52166;SDS011;38149;52.666;6.428;2023-04-05T06:55:55;0.30;;;0.30;;
52166;SDS011;38149;52.666;6.428;2023-04-05T06:58:22;0.20;;;0.20;;
52166;SDS011;38149;52.666;6.428;2023-04-05T07:00:49;0.30;;;0.30;;
52166;SDS011;38149;52.666;6.428;2023-04-05T07:03:15;0.30;;;0.30;;
52166;SDS011;38149;52.666;6.428;2023-04-05T07:05:52;0.30;;;0.30;;
52166;SDS011;38149;52.666;6.428;2023-04-05T07:08:19;0.30;;;0.30;;
52166;SDS011;38149;52.666;6.428;2023-04-05T07:10:46;0.30;;;0.30;;
52166;SDS011;38149;52.666;6.428;2023-04-05T07:13:12;0.30;;;0.30;;
52166;SDS011;38149;52.666;6.428;2023-04-05T07:15:38;0.30;;;0.30;;
52166;SDS011;38149;52.666;6.428;2023-04-05T07:18:05;0.30;;;0.30;;
52166;SDS011;38149;52.666;6.428;2023-04-05T07:20:31;0.30;;;0.30;;
52166;SDS011;38149;52.666;6.428;2023-04-05T07:22:57;0.30;;;0.30;;
52166;SDS011;38149;52.666;6.428;2023-04-05T07:25:23;0.30;;;0.30;;
52166;SDS011;38149;52.666;6.428;2023-04-05T07:27:49;0.30;;;0.30;;
52166;SDS011;38149;52.666;6.428;2023-04-05T07:30:16;0.30;;;0.30;;
52166;SDS011;38149;52.666;6.428;2023-04-05T07:32:42;0.30;;;0.30;;
52166;SDS011;38149;52.666;6.428;2023-04-05T07:35:11;0.30;;;0.30;;
52166;SDS011;38149;52.666;6.428;2023-04-05T07:37:37;0.30;;;0.30;;
52166;SDS011;38149;52.666;6.428;2023-04-05T07:40:03;0.30;;;0.30;;
52166;SDS011;38149;52.666;6.428;2023-04-05T07:42:31;0.30;;;0.30;;
52166;SDS011;38149;52.666;6.428;2023-04-05T07:44:57;0.30;;;0.30;;
52166;SDS011;38149;52.666;6.428;2023-04-05T07:47:23;0.20;;;0.20;;
52166;SDS011;38149;52.666;6.428;2023-04-05T07:49:50;0.20;;;0.20;;
52166;SDS011;38149;52.666;6.428;2023-04-05T07:52:16;0.30;;;0.30;;
52166;SDS011;38149;52.666;6.428;2023-04-05T07:54:42;0.22;;;0.22;;
52166;SDS011;38149;52.666;6.428;2023-04-05T07:57:09;0.20;;;0.20;;
52166;SDS011;38149;52.666;6.428;2023-04-05T07:59:42;0.30;;;0.30;;
52166;SDS011;38149;52.666;6.428;2023-04-05T08:02:08;0.30;;;0.30;;
52166;SDS011;38149;52.666;6.428;2023-04-05T08:04:34;0.20;;;0.20;;
52166;SDS011;38149;52.666;6.428;2023-04-05T08:07:00;0.20;;;0.20;;
52166;SDS011;38149;52.666;6.428;2023-04-05T08:09:27;0.20;;;0.20;;
52166;SDS011;38149;52.666;6.428;2023-04-05T08:11:53;0.20;;;0.20;;
52166;SDS011;38149;52.666;6.428;2023-04-05T08:14:21;0.25;;;0.25;;
52166;SDS011;38149;52.666;6.428;2023-04-05T08:16:47;0.30;;;0.30;;
52166;SDS011;38149;52.666;6.428;2023-04-05T08:19:15;0.30;;;0.30;;
52166;SDS011;38149;52.666;6.428;2023-04-05T08:21:41;0.20;;;0.20;;
52166;SDS011;38149;52.666;6.428;2023-04-05T08:24:07;0.25;;;0.25;;
52166;SDS011;38149;52.666;6.428;2023-04-05T08:26:33;0.20;;;0.20;;
52166;SDS011;38149;52.666;6.428;2023-04-05T08:28:59;0.20;;;0.20;;
52166;SDS011;38149;52.666;6.428;2023-04-05T08:31:25;0.20;;;0.20;;
52166;SDS011;38149;52.666;6.428;2023-04-05T08:33:51;0.20;;;0.20;;
52166;SDS011;38149;52.666;6.428;2023-04-05T08:36:17;0.20;;;0.20;;
52166;SDS011;38149;52.666;6.428;2023-04-05T08:38:43;0.20;;;0.20;;
52166;SDS011;38149;52.666;6.428;2023-04-05T08:41:20;0.20;;;0.20;;
52166;SDS011;38149;52.666;6.428;2023-04-05T08:43:54;0.20;;;0.20;;
52166;SDS011;38149;52.666;6.428;2023-04-05T08:46:21;0.20;;;0.20;;
52166;SDS011;38149;52.666;6.428;2023-04-05T08:48:48;0.20;;;0.20;;
52166;SDS011;38149;52.666;6.428;2023-04-05T08:51:19;0.30;;;0.30;;
52166;SDS011;38149;52.666;6.428;2023-04-05T08:53:45;0.20;;;0.20;;
52166;SDS011;38149;52.666;6.428;2023-04-05T08:56:14;0.20;;;0.20;;
52166;SDS011;38149;52.666;6.428;2023-04-05T08:58:48;0.20;;;0.20;;
52166;SDS011;38149;52.666;6.428;2023-04-05T09:01:22;0.20;;;0.20;;
52166;SDS011;38149;52.666;6.428;2023-04-05T09:03:50;0.28;;;0.28;;
52166;SDS011;38149;52.666;6.428;2023-04-05T09:06:17;0.20;;;0.20;;
52166;SDS011;38149;52.666;6.428;2023-04-05T09:08:44;0.20;;;0.20;;
52166;SDS011;38149;52.666;6.428;2023-04-05T09:11:11;0.20;;;0.20;;
52166;SDS011;38149;52.666;6.428;2023-04-05T09:13:37;0.20;;;0.20;;
52166;SDS011;38149;52.666;6.428;2023-04-05T09:16:03;0.25;;;0.25;;
52166;SDS011;38149;52.666;6.428;2023-04-05T09:18:30;0.20;;;0.20;;
52166;SDS011;38149;52.666;6.428;2023-04-05T09:21:00;0.20;;;0.20;;
52166;SDS011;38149;52.666;6.428;2023-04-05T09:23:30;0.20;;;0.20;;
52166;SDS011;38149;52.666;6.428;2023-04-05T09:25:59;0.20;;;0.20;;
52166;SDS011;38149;52.666;6.428;2023-04-05T09:28:40;0.20;;;0.20;;
52166;SDS011;38149;52.666;6.428;2023-04-05T09:31:07;0.20;;;0.20;;
52166;SDS011;38149;52.666;6.428;2023-04-05T09:33:33;0.20;;;0.20;;
52166;SDS011;38149;52.666;6.428;2023-04-05T09:36:00;0.20;;;0.20;;
52166;SDS011;38149;52.666;6.428;2023-04-05T09:38:43;0.20;;;0.20;;
52166;SDS011;38149;52.666;6.428;2023-04-05T09:41:09;0.20;;;0.20;;
52166;SDS011;38149;52.666;6.428;2023-04-05T09:43:37;0.20;;;0.20;;
52166;SDS011;38149;52.666;6.428;2023-04-05T09:46:03;0.20;;;0.20;;
52166;SDS011;38149;52.666;6.428;2023-04-05T09:48:48;0.20;;;0.20;;
52166;SDS011;38149;52.666;6.428;2023-04-05T09:51:18;0.20;;;0.20;;
52166;SDS011;38149;52.666;6.428;2023-04-05T09:54:04;0.20;;;0.20;;
52166;SDS011;38149;52.666;6.428;2023-04-05T09:56:35;0.20;;;0.20;;
52166;SDS011;38149;52.666;6.428;2023-04-05T09:59:07;0.20;;;0.20;;
52166;SDS011;38149;52.666;6.428;2023-04-05T10:01:37;0.20;;;0.20;;
52166;SDS011;38149;52.666;6.428;2023-04-05T10:04:07;0.20;;;0.20;;
52166;SDS011;38149;52.666;6.428;2023-04-05T10:06:37;0.20;;;0.20;;
52166;SDS011;38149;52.666;6.428;2023-04-05T10:09:04;0.20;;;0.20;;
52166;SDS011;38149;52.666;6.428;2023-04-05T10:11:31;0.20;;;0.20;;
52166;SDS011;38149;52.666;6.428;2023-04-05T10:14:05;0.20;;;0.20;;
52166;SDS011;38149;52.666;6.428;2023-04-05T10:16:34;0.20;;;0.20;;
52166;SDS011;38149;52.666;6.428;2023-04-05T10:19:26;0.20;;;0.20;;
52166;SDS011;38149;52.666;6.428;2023-04-05T10:22:13;0.20;;;0.20;;
52166;SDS011;38149;52.666;6.428;2023-04-05T10:24:47;0.20;;;0.20;;
52166;SDS011;38149;52.666;6.428;2023-04-05T10:27:26;0.20;;;0.20;;
52166;SDS011;38149;52.666;6.428;2023-04-05T10:29:59;0.20;;;0.20;;
52166;SDS011;38149;52.666;6.428;2023-04-05T10:35:19;0.20;;;0.20;;
52166;SDS011;38149;52.666;6.428;2023-04-05T10:38:41;0.10;;;0.10;;
52166;SDS011;38149;52.666;6.428;2023-04-05T10:43:19;0.20;;;0.20;;
52166;SDS011;38149;52.666;6.428;2023-04-05T10:45:48;0.20;;;0.20;;
52166;SDS011;38149;52.666;6.428;2023-04-05T10:51:19;0.20;;;0.20;;
52166;SDS011;38149;52.666;6.428;2023-04-05T10:53:48;0.20;;;0.20;;
52166;SDS011;38149;52.666;6.428;2023-04-05T10:56:14;0.20;;;0.20;;
52166;SDS011;38149;52.666;6.428;2023-04-05T10:58:41;0.20;;;0.20;;
52166;SDS011;38149;52.666;6.428;2023-04-05T11:01:08;0.20;;;0.20;;
52166;SDS011;38149;52.666;6.428;2023-04-05T11:06:16;0.20;;;0.20;;
52166;SDS011;38149;52.666;6.428;2023-04-05T11:09:00;0.20;;;0.20;;
52166;SDS011;38149;52.666;6.428;2023-04-05T11:11:48;0.20;;;0.20;;
52166;SDS011;38149;52.666;6.428;2023-04-05T11:14:22;0.20;;;0.20;;
52166;SDS011;38149;52.666;6.428;2023-04-05T11:16:53;0.20;;;0.20;;
52166;SDS011;38149;52.666;6.428;2023-04-05T11:22:08;0.20;;;0.20;;
52166;SDS011;38149;52.666;6.428;2023-04-05T11:24:50;0.20;;;0.20;;
52166;SDS011;38149;52.666;6.428;2023-04-05T11:27:31;0.20;;;0.20;;
52166;SDS011;38149;52.666;6.428;2023-04-05T11:29:59;0.20;;;0.20;;
52166;SDS011;38149;52.666;6.428;2023-04-05T11:32:39;0.20;;;0.20;;
52166;SDS011;38149;52.666;6.428;2023-04-05T11:40:27;0.20;;;0.20;;
52166;SDS011;38149;52.666;6.428;2023-04-05T11:43:00;0.20;;;0.20;;
52166;SDS011;38149;52.666;6.428;2023-04-05T11:45:30;0.20;;;0.20;;
52166;SDS011;38149;52.666;6.428;2023-04-05T11:48:06;0.10;;;0.10;;
52166;SDS011;38149;52.666;6.428;2023-04-05T11:50:35;0.20;;;0.20;;
52166;SDS011;38149;52.666;6.428;2023-04-05T11:53:14;0.20;;;0.20;;
52166;SDS011;38149;52.666;6.428;2023-04-05T11:55:45;0.10;;;0.10;;
52166;SDS011;38149;52.666;6.428;2023-04-05T11:58:19;0.20;;;0.20;;
52166;SDS011;38149;52.666;6.428;2023-04-05T12:00:55;0.20;;;0.20;;
52166;SDS011;38149;52.666;6.428;2023-04-05T12:03:23;0.10;;;0.10;;
52166;SDS011;38149;52.666;6.428;2023-04-05T12:05:52;0.10;;;0.10;;
52166;SDS011;38149;52.666;6.428;2023-04-05T12:08:19;0.20;;;0.20;;
52166;SDS011;38149;52.666;6.428;2023-04-05T12:10:56;0.20;;;0.20;;
52166;SDS011;38149;52.666;6.428;2023-04-05T12:13:28;0.20;;;0.20;;
52166;SDS011;38149;52.666;6.428;2023-04-05T12:15:56;0.20;;;0.20;;
52166;SDS011;38149;52.666;6.428;2023-04-05T12:18:23;0.20;;;0.20;;
52166;SDS011;38149;52.666;6.428;2023-04-05T12:20:51;0.20;;;0.20;;
52166;SDS011;38149;52.666;6.428;2023-04-05T12:23:18;0.20;;;0.20;;
52166;SDS011;38149;52.666;6.428;2023-04-05T12:25:48;0.20;;;0.20;;
52166;SDS011;38149;52.666;6.428;2023-04-05T12:28:15;0.10;;;0.10;;
52166;SDS011;38149;52.666;6.428;2023-04-05T12:30:56;0.10;;;0.10;;
52166;SDS011;38149;52.666;6.428;2023-04-05T12:33:29;0.20;;;0.20;;
52166;SDS011;38149;52.666;6.428;2023-04-05T12:35:57;0.10;;;0.10;;
52166;SDS011;38149;52.666;6.428;2023-04-05T12:38:24;0.10;;;0.10;;
52166;SDS011;38149;52.666;6.428;2023-04-05T12:40:53;0.10;;;0.10;;
52166;SDS011;38149;52.666;6.428;2023-04-05T12:43:41;0.10;;;0.10;;
52166;SDS011;38149;52.666;6.428;2023-04-05T12:46:08;0.20;;;0.20;;
52166;SDS011;38149;52.666;6.428;2023-04-05T12:48:40;0.20;;;0.20;;
52166;SDS011;38149;52.666;6.428;2023-04-05T12:51:13;0.20;;;0.20;;
52166;SDS011;38149;52.666;6.428;2023-04-05T12:53:44;0.20;;;0.20;;
52166;SDS011;38149;52.666;6.428;2023-04-05T12:56:14;0.10;;;0.10;;
52166;SDS011;38149;52.666;6.428;2023-04-05T12:58:40;0.20;;;0.20;;
52166;SDS011;38149;52.666;6.428;2023-04-05T13:01:06;0.20;;;0.20;;
52166;SDS011;38149;52.666;6.428;2023-04-05T13:03:34;0.20;;;0.20;;
52166;SDS011;38149;52.666;6.428;2023-04-05T13:06:00;0.20;;;0.20;;
52166;SDS011;38149;52.666;6.428;2023-04-05T13:08:26;0.20;;;0.20;;
52166;SDS011;38149;52.666;6.428;2023-04-05T13:10:52;0.20;;;0.20;;
52166;SDS011;38149;52.666;6.428;2023-04-05T13:13:18;0.20;;;0.20;;
52166;SDS011;38149;52.666;6.428;2023-04-05T13:15:45;0.10;;;0.10;;
52166;SDS011;38149;52.666;6.428;2023-04-05T13:18:11;0.20;;;0.20;;
52166;SDS011;38149;52.666;6.428;2023-04-05T13:20:39;0.17;;;0.17;;
52166;SDS011;38149;52.666;6.428;2023-04-05T13:23:08;0.13;;;0.13;;
52166;SDS011;38149;52.666;6.428;2023-04-05T13:25:39;0.20;;;0.20;;
52166;SDS011;38149;52.666;6.428;2023-04-05T13:28:07;0.20;;;0.20;;
52166;SDS011;38149;52.666;6.428;2023-04-05T13:30:33;0.10;;;0.10;;
52166;SDS011;38149;52.666;6.428;2023-04-05T13:32:59;0.10;;;0.10;;
52166;SDS011;38149;52.666;6.428;2023-04-05T13:35:25;0.10;;;0.10;;
52166;SDS011;38149;52.666;6.428;2023-04-05T13:37:51;0.15;;;0.15;;
52166;SDS011;38149;52.666;6.428;2023-04-05T13:40:17;0.13;;;0.13;;
52166;SDS011;38149;52.666;6.428;2023-04-05T13:42:44;0.10;;;0.10;;
52166;SDS011;38149;52.666;6.428;2023-04-05T13:45:10;0.20;;;0.20;;
52166;SDS011;38149;52.666;6.428;2023-04-05T13:47:36;0.10;;;0.10;;
52166;SDS011;38149;52.666;6.428;2023-04-05T13:50:02;0.20;;;0.20;;
52166;SDS011;38149;52.666;6.428;2023-04-05T13:52:29;0.10;;;0.10;;
52166;SDS011;38149;52.666;6.428;2023-04-05T13:54:55;0.10;;;0.10;;
52166;SDS011;38149;52.666;6.428;2023-04-05T13:57:21;0.10;;;0.10;;
52166;SDS011;38149;52.666;6.428;2023-04-05T13:59:47;0.10;;;0.10;;
52166;SDS011;38149;52.666;6.428;2023-04-05T14:02:13;0.10;;;0.10;;
52166;SDS011;38149;52.666;6.428;2023-04-05T14:04:41;0.20;;;0.20;;
52166;SDS011;38149;52.666;6.428;2023-04-05T14:07:07;0.10;;;0.10;;
52166;SDS011;38149;52.666;6.428;2023-04-05T14:09:33;0.10;;;0.10;;
52166;SDS011;38149;52.666;6.428;2023-04-05T14:11:59;0.15;;;0.15;;
52166;SDS011;38149;52.666;6.428;2023-04-05T14:14:26;0.10;;;0.10;;
52166;SDS011;38149;52.666;6.428;2023-04-05T14:16:53;0.10;;;0.10;;
52166;SDS011;38149;52.666;6.428;2023-04-05T14:19:19;0.10;;;0.10;;
52166;SDS011;38149;52.666;6.428;2023-04-05T14:21:45;0.10;;;0.10;;
52166;SDS011;38149;52.666;6.428;2023-04-05T14:24:12;0.10;;;0.10;;
52166;SDS011;38149;52.666;6.428;2023-04-05T14:26:38;0.10;;;0.10;;
52166;SDS011;38149;52.666;6.428;2023-04-05T14:29:05;0.10;;;0.10;;
52166;SDS011;38149;52.666;6.428;2023-04-05T14:31:31;0.10;;;0.10;;
52166;SDS011;38149;52.666;6.428;2023-04-05T14:33:57;0.10;;;0.10;;
52166;SDS011;38149;52.666;6.428;2023-04-05T14:36:23;0.10;;;0.10;;
52166;SDS011;38149;52.666;6.428;2023-04-05T14:38:51;0.20;;;0.20;;
52166;SDS011;38149;52.666;6.428;2023-04-05T14:41:17;0.10;;;0.10;;
52166;SDS011;38149;52.666;6.428;2023-04-05T14:43:43;0.13;;;0.13;;
52166;SDS011;38149;52.666;6.428;2023-04-05T14:46:09;0.10;;;0.10;;
52166;SDS011;38149;52.666;6.428;2023-04-05T14:48:36;0.20;;;0.20;;
52166;SDS011;38149;52.666;6.428;2023-04-05T14:51:02;0.10;;;0.10;;
52166;SDS011;38149;52.666;6.428;2023-04-05T14:53:28;0.10;;;0.10;;
52166;SDS011;38149;52.666;6.428;2023-04-05T14:55:55;0.10;;;0.10;;
52166;SDS011;38149;52.666;6.428;2023-04-05T14:58:21;0.10;;;0.10;;
52166;SDS011;38149;52.666;6.428;2023-04-05T15:00:47;0.10;;;0.10;;
52166;SDS011;38149;52.666;6.428;2023-04-05T15:03:14;0.10;;;0.10;;
52166;SDS011;38149;52.666;6.428;2023-04-05T15:05:43;0.10;;;0.10;;
52166;SDS011;38149;52.666;6.428;2023-04-05T15:08:12;0.10;;;0.10;;
52166;SDS011;38149;52.666;6.428;2023-04-05T15:10:38;0.10;;;0.10;;
52166;SDS011;38149;52.666;6.428;2023-04-05T15:13:06;0.10;;;0.10;;
52166;SDS011;38149;52.666;6.428;2023-04-05T15:15:33;0.10;;;0.10;;
52166;SDS011;38149;52.666;6.428;2023-04-05T15:17:59;0.13;;;0.13;;
52166;SDS011;38149;52.666;6.428;2023-04-05T15:20:26;0.10;;;0.10;;
52166;SDS011;38149;52.666;6.428;2023-04-05T15:22:52;0.10;;;0.10;;
52166;SDS011;38149;52.666;6.428;2023-04-05T15:25:18;0.10;;;0.10;;
52166;SDS011;38149;52.666;6.428;2023-04-05T15:27:44;0.10;;;0.10;;